Time;durP1;ratioP1;P1;durP2;ratioP2;P2;SDS_P1;SDS_P2;PMS_P1;PMS_P2;Temp;Humidity;BMP_temperature;BMP_pressure;BME280_temperature;BME280_humidity;BME280_pressure;Samples;Min_cycle;Max_cycle;Signal;HPM_P1;HPM_P2
2022/04/24 00:02:27;;;;;;;5.10;4.03;;;;;;;11.27;49.94;100155.72;5031547;28;20412;-69
2022/04/24 00:04:54;;;;;;;4.57;3.67;;;;;;;11.27;49.95;100163.63;5032699;28;20087;-70
2022/04/24 00:07:22;;;;;;;4.75;4.03;;;;;;;11.25;49.73;100160.19;5032145;28;20044;-69
2022/04/24 00:09:49;;;;;;;4.60;3.88;;;;;;;11.26;49.98;100155.75;5031990;28;20561;-68
2022/04/24 00:12:17;;;;;;;3.88;3.47;;;;;;;11.25;50.21;100159.31;5032231;28;20452;-69
2022/04/24 00:14:46;;;;;;;6.57;4.00;;;;;;;11.24;50.09;100162.91;5031973;28;20092;-69
2022/04/24 00:17:16;;;;;;;4.35;3.42;;;;;;;11.27;50.15;100162.75;5031137;28;20432;-69
2022/04/24 00:19:44;;;;;;;5.93;3.70;;;;;;;11.27;49.91;100162.75;5032015;28;20073;-70
2022/04/24 00:22:12;;;;;;;5.15;4.00;;;;;;;11.24;50.20;100155.84;5031884;28;20046;-69
2022/04/24 00:24:39;;;;;;;4.72;3.83;;;;;;;11.20;50.15;100154.25;5031873;28;20049;-69
2022/04/24 00:27:08;;;;;;;5.15;3.75;;;;;;;11.17;50.48;100152.59;5032244;28;20061;-70
2022/04/24 00:29:36;;;;;;;4.53;3.72;;;;;;;11.16;50.37;100147.41;5030019;28;20037;-69
2022/04/24 00:32:05;;;;;;;4.75;4.00;;;;;;;11.14;50.58;100149.25;5032070;28;20038;-69
2022/04/24 00:34:32;;;;;;;4.65;3.95;;;;;;;11.10;50.68;100145.88;5031651;28;20140;-69
2022/04/24 00:36:59;;;;;;;5.47;4.20;;;;;;;11.08;50.64;100142.44;5031429;28;20038;-70
2022/04/24 00:39:27;;;;;;;4.80;4.28;;;;;;;11.04;50.74;100140.84;5031547;28;20050;-69
2022/04/24 00:41:54;;;;;;;7.05;4.10;;;;;;;11.03;50.84;100136.53;5031340;28;20121;-69
2022/04/24 00:44:21;;;;;;;4.82;4.30;;;;;;;11.02;50.81;100133.03;5031505;28;20046;-69
2022/04/24 00:47:06;;;;;;;5.55;4.00;;;;;;;10.99;50.86;100130.50;5031580;28;20057;-69
2022/04/24 00:49:33;;;;;;;4.57;3.72;;;;;;;10.98;50.98;100135.84;5031995;28;20125;-69
2022/04/24 00:52:02;;;;;;;5.05;4.00;;;;;;;10.95;51.10;100135.97;5031264;28;20034;-68
2022/04/24 00:54:29;;;;;;;5.50;4.35;;;;;;;10.92;50.94;100126.44;5031885;28;20072;-69
2022/04/24 00:56:56;;;;;;;5.13;4.38;;;;;;;10.90;51.05;100135.34;5031416;28;20042;-69
2022/04/24 00:59:24;;;;;;;4.97;4.03;;;;;;;10.86;51.07;100130.19;5031434;28;20046;-69
2022/04/24 01:01:51;;;;;;;6.00;4.25;;;;;;;10.83;51.12;100130.34;5030912;28;20045;-69
2022/04/24 01:04:19;;;;;;;5.32;4.13;;;;;;;10.82;51.17;100136.53;5033677;28;20504;-69
2022/04/24 01:06:46;;;;;;;4.55;3.85;;;;;;;10.81;51.30;100136.56;5034339;28;20042;-69
2022/04/24 01:09:23;;;;;;;4.68;4.00;;;;;;;10.78;51.46;100139.38;5034638;28;20093;-68
2022/04/24 01:11:55;;;;;;;5.07;4.30;;;;;;;10.75;51.72;100139.50;5034521;28;20053;-68
2022/04/24 01:14:25;;;;;;;4.43;3.88;;;;;;;10.68;51.90;100141.53;5034252;28;20042;-68
2022/04/24 01:16:54;;;;;;;6.65;4.43;;;;;;;10.66;51.58;100140.72;5034414;28;20038;-68
2022/04/24 01:19:21;;;;;;;5.25;3.88;;;;;;;10.59;52.09;100137.47;5034298;28;20048;-69
2022/04/24 01:21:49;;;;;;;5.45;4.55;;;;;;;10.56;52.13;100150.81;5034567;28;20042;-69
2022/04/24 01:24:21;;;;;;;5.38;4.13;;;;;;;10.48;52.34;100140.56;5034177;28;20046;-69
2022/04/24 01:26:49;;;;;;;6.20;4.35;;;;;;;10.43;52.45;100146.94;5034599;28;20045;-69
2022/04/24 01:29:17;;;;;;;6.90;4.60;;;;;;;10.36;52.75;100141.03;5034366;28;20042;-69
2022/04/24 01:31:46;;;;;;;7.13;5.18;;;;;;;10.30;52.94;100146.56;5034267;28;20535;-68
2022/04/24 01:34:13;;;;;;;5.60;4.57;;;;;;;10.24;52.97;100137.97;5034054;28;20066;-68
2022/04/24 01:36:41;;;;;;;6.10;4.88;;;;;;;10.20;52.96;100146.06;5033781;28;20038;-70
2022/04/24 01:39:08;;;;;;;5.47;4.45;;;;;;;10.13;53.47;100144.59;5032612;28;20053;-69
2022/04/24 01:41:36;;;;;;;5.05;4.30;;;;;;;10.08;53.56;100144.78;5034062;28;20049;-68
2022/04/24 01:44:04;;;;;;;6.63;4.72;;;;;;;10.00;54.04;100139.81;5034237;28;20492;-70
2022/04/24 01:46:31;;;;;;;6.25;4.63;;;;;;;9.95;54.26;100150.50;5033708;28;20060;-68
2022/04/24 01:48:58;;;;;;;5.65;5.00;;;;;;;9.91;54.31;100151.56;5034382;28;20038;-69
2022/04/24 01:51:26;;;;;;;6.10;5.00;;;;;;;9.85;54.72;100143.88;5034069;28;20042;-69
2022/04/24 01:53:53;;;;;;;6.85;5.28;;;;;;;9.83;54.64;100150.13;5034061;28;20049;-69
2022/04/24 01:56:20;;;;;;;7.35;5.18;;;;;;;9.77;54.94;100145.97;5033825;28;20057;-68
2022/04/24 01:58:47;;;;;;;6.85;5.78;;;;;;;9.74;54.96;100146.94;5033724;28;20092;-68
2022/04/24 02:01:14;;;;;;;8.40;5.72;;;;;;;9.70;55.17;100147.97;5033675;28;20089;-69
2022/04/24 02:03:42;;;;;;;7.20;5.32;;;;;;;9.67;55.34;100147.22;5033888;28;20042;-68
2022/04/24 02:06:10;;;;;;;7.70;5.68;;;;;;;9.64;55.52;100153.47;5033887;28;20053;-69
2022/04/24 02:08:37;;;;;;;15.50;6.20;;;;;;;9.60;55.68;100152.72;5033446;28;20042;-69
2022/04/24 02:11:06;;;;;;;6.38;5.53;;;;;;;9.58;55.72;100151.03;5033818;28;20049;-69
2022/04/24 02:13:34;;;;;;;8.32;6.15;;;;;;;9.55;55.62;100148.56;5033428;28;20069;-69
2022/04/24 02:16:02;;;;;;;12.05;5.57;;;;;;;9.50;55.87;100148.72;5033446;28;20038;-68
2022/04/24 02:18:30;;;;;;;8.55;6.00;;;;;;;9.46;56.08;100136.59;5033646;28;20054;-69
2022/04/24 02:20:57;;;;;;;7.43;5.72;;;;;;;9.42;56.47;100146.38;5033176;28;20041;-68
2022/04/24 02:23:24;;;;;;;7.75;6.40;;;;;;;9.37;56.51;100143.03;5033528;28;20052;-70
2022/04/24 02:25:51;;;;;;;7.13;5.30;;;;;;;9.33;56.82;100146.69;5033537;28;20042;-68
2022/04/24 02:28:18;;;;;;;8.07;6.15;;;;;;;9.27;56.98;100150.41;5032853;28;20137;-68
2022/04/24 02:30:45;;;;;;;9.93;6.50;;;;;;;9.25;56.82;100151.38;5033033;28;20497;-68
2022/04/24 02:33:12;;;;;;;7.55;6.03;;;;;;;9.19;56.91;100147.19;5032838;28;20141;-68
2022/04/24 02:35:39;;;;;;;7.35;6.15;;;;;;;9.12;57.21;100149.19;5033400;28;20037;-69
2022/04/24 02:38:12;;;;;;;7.60;6.15;;;;;;;9.08;57.66;100155.44;5032931;28;20038;-68
2022/04/24 02:40:40;;;;;;;8.00;6.40;;;;;;;9.07;57.39;100151.09;5033287;28;20057;-68
2022/04/24 02:43:07;;;;;;;6.90;6.20;;;;;;;9.05;57.78;100152.06;5033052;28;20038;-68
2022/04/24 02:45:35;;;;;;;6.88;5.63;;;;;;;9.02;57.95;100158.31;5033223;28;20082;-69
2022/04/24 02:48:03;;;;;;;9.20;6.13;;;;;;;8.99;58.20;100150.50;5032967;28;20045;-69
2022/04/24 02:50:30;;;;;;;7.75;6.15;;;;;;;8.98;58.22;100154.94;5033205;28;20048;-68
2022/04/24 02:52:57;;;;;;;8.55;6.45;;;;;;;8.94;58.13;100160.34;5032661;28;20042;-69
2022/04/24 02:55:25;;;;;;;7.93;6.18;;;;;;;8.89;58.82;100163.13;5032655;28;20041;-69
2022/04/24 02:57:55;;;;;;;9.43;6.88;;;;;;;8.85;58.56;100162.34;5033051;28;20109;-68
2022/04/24 03:00:25;;;;;;;6.93;5.75;;;;;;;8.81;59.05;100158.13;5032924;28;20046;-68
2022/04/24 03:02:53;;;;;;;7.70;6.50;;;;;;;8.76;58.94;100157.41;5032279;28;20050;-68
2022/04/24 03:05:23;;;;;;;9.07;6.43;;;;;;;8.74;59.24;100161.88;5033020;28;20073;-68
2022/04/24 03:07:51;;;;;;;7.97;5.97;;;;;;;8.70;59.50;100165.50;5033128;28;20069;-68
2022/04/24 03:10:19;;;;;;;9.05;6.75;;;;;;;8.69;59.67;100155.91;5032752;28;20512;-67
2022/04/24 03:12:46;;;;;;;9.23;6.40;;;;;;;8.64;59.95;100163.09;5032451;28;20204;-69
2022/04/24 03:15:15;;;;;;;7.70;6.35;;;;;;;8.60;59.97;100161.47;5032822;28;20069;-68
2022/04/24 03:17:44;;;;;;;8.10;6.30;;;;;;;8.57;59.99;100151.06;5032644;28;20132;-69
2022/04/24 03:20:12;;;;;;;7.20;6.03;;;;;;;8.53;60.76;100152.94;5032665;28;20077;-68
2022/04/24 03:22:39;;;;;;;8.80;6.40;;;;;;;8.49;60.91;100157.44;5032721;28;20043;-69
2022/04/24 03:25:10;;;;;;;9.90;5.82;;;;;;;8.48;61.17;100160.97;5032350;28;20045;-68
2022/04/24 03:27:38;;;;;;;8.00;6.72;;;;;;;8.47;61.02;100163.63;5031766;28;20038;-68
2022/04/24 03:30:11;;;;;;;7.28;6.20;;;;;;;8.45;61.50;100168.06;5032498;28;20483;-68
2022/04/24 03:32:39;;;;;;;9.93;6.60;;;;;;;8.41;61.50;100172.56;5031836;28;20125;-69
2022/04/24 03:35:09;;;;;;;10.98;6.63;;;;;;;8.41;61.25;100164.66;5032425;28;20065;-68
2022/04/24 03:37:38;;;;;;;9.98;6.28;;;;;;;8.38;61.76;100164.75;5032089;28;20085;-68
2022/04/24 03:40:07;;;;;;;8.10;6.00;;;;;;;8.34;62.50;100171.88;5032566;28;20092;-69
2022/04/24 03:42:36;;;;;;;7.15;5.95;;;;;;;8.31;62.49;100166.72;5032594;28;20125;-69
2022/04/24 03:45:11;;;;;;;9.40;6.15;;;;;;;8.30;62.50;100170.25;5031987;28;20078;-69
2022/04/24 03:47:39;;;;;;;8.55;6.50;;;;;;;8.28;62.25;100165.97;5032240;28;20052;-68
2022/04/24 03:50:08;;;;;;;7.13;6.28;;;;;;;8.24;62.80;100166.03;5031926;28;20070;-68
2022/04/24 03:52:35;;;;;;;7.25;6.38;;;;;;;8.22;62.91;100167.88;5032248;28;20041;-69
2022/04/24 03:55:03;;;;;;;7.22;5.95;;;;;;;8.15;63.42;100168.13;5032301;28;20038;-69
2022/04/24 03:57:31;;;;;;;9.85;6.18;;;;;;;8.13;63.64;100175.19;5031851;28;20042;-69
2022/04/24 03:59:58;;;;;;;7.93;6.55;;;;;;;8.12;63.48;100171.69;5031763;28;20061;-69
2022/04/24 04:02:26;;;;;;;9.38;6.13;;;;;;;8.09;63.61;100164.75;5032574;28;20046;-68
2022/04/24 04:04:53;;;;;;;8.65;6.43;;;;;;;8.07;63.76;100169.22;5032389;28;20042;-68
2022/04/24 04:07:20;;;;;;;10.63;6.70;;;;;;;8.05;63.55;100170.16;5032117;28;20459;-69
2022/04/24 04:09:48;;;;;;;8.30;6.32;;;;;;;8.02;63.71;100168.47;5031720;28;20049;-68
2022/04/24 04:12:15;;;;;;;9.15;6.80;;;;;;;7.99;63.94;100170.34;5031879;28;20045;-70
2022/04/24 04:14:42;;;;;;;11.45;6.35;;;;;;;7.95;63.96;100169.59;5031960;28;20038;-68
2022/04/24 04:17:10;;;;;;;9.23;6.30;;;;;;;7.92;64.59;100175.78;5031815;28;20487;-68
2022/04/24 04:19:37;;;;;;;7.88;6.00;;;;;;;7.92;64.45;100170.53;5031339;28;20057;-69
2022/04/24 04:22:06;;;;;;;8.23;6.20;;;;;;;7.93;64.30;100176.63;5031864;28;20056;-69
2022/04/24 04:24:33;;;;;;;9.63;6.22;;;;;;;7.91;64.41;100176.69;5032005;28;20050;-68
2022/04/24 04:27:00;;;;;;;8.32;5.55;;;;;;;7.91;64.89;100176.69;5032014;28;20042;-68
2022/04/24 04:29:27;;;;;;;7.95;5.90;;;;;;;7.95;64.63;100173.97;5031505;28;20046;-69
2022/04/24 04:32:00;;;;;;;10.85;5.97;;;;;;;7.93;64.36;100169.66;5031301;28;20050;-69
2022/04/24 04:34:28;;;;;;;8.30;6.13;;;;;;;7.93;64.56;100177.53;5031433;28;20101;-69
2022/04/24 04:36:55;;;;;;;8.30;6.20;;;;;;;7.93;64.62;100177.53;5031782;28;20052;-67
2022/04/24 04:39:22;;;;;;;7.65;6.13;;;;;;;7.95;64.71;100184.47;5034623;28;20053;-68
2022/04/24 04:41:49;;;;;;;9.20;6.00;;;;;;;7.99;64.38;100189.56;5034842;28;20038;-68
2022/04/24 04:44:16;;;;;;;6.97;5.75;;;;;;;8.13;64.10;100185.69;5035072;28;20046;-68
2022/04/24 04:46:43;;;;;;;8.40;6.28;;;;;;;8.50;63.00;100192.44;5035300;28;20045;-69
2022/04/24 04:49:10;;;;;;;8.27;5.57;;;;;;;8.96;61.83;100187.41;5035246;28;20042;-68
2022/04/24 04:51:37;;;;;;;8.43;6.13;;;;;;;9.52;60.16;100177.59;5034705;28;20042;-69
2022/04/24 04:54:04;;;;;;;8.38;6.43;;;;;;;10.00;58.44;100186.34;5034686;28;20054;-68
2022/04/24 04:56:31;;;;;;;7.22;5.80;;;;;;;10.38;57.50;100189.28;5034959;28;20065;-69
2022/04/24 04:58:58;;;;;;;7.03;5.38;;;;;;;10.86;55.91;100192.63;5034839;28;20540;-69
2022/04/24 05:01:25;;;;;;;5.63;4.63;;;;;;;11.32;54.51;100192.44;5034033;28;20189;-69
2022/04/24 05:03:53;;;;;;;8.15;5.50;;;;;;;11.56;53.68;100192.25;5034513;28;20042;-68
2022/04/24 05:06:21;;;;;;;6.28;5.20;;;;;;;11.45;53.30;100192.75;5033608;28;20503;-69
2022/04/24 05:08:48;;;;;;;7.57;5.03;;;;;;;11.35;53.44;100202.84;5034773;28;20476;-68
2022/04/24 05:11:17;;;;;;;5.07;4.55;;;;;;;11.10;54.02;100211.84;5034917;28;20050;-69
2022/04/24 05:13:44;;;;;;;6.45;4.63;;;;;;;11.43;53.45;100207.78;5034551;28;20046;-69
2022/04/24 05:16:12;;;;;;;5.78;4.85;;;;;;;12.08;51.69;100216.31;5033798;28;20046;-68
2022/04/24 05:18:39;;;;;;;6.40;4.60;;;;;;;12.63;49.81;100209.34;5034246;28;20204;-69
2022/04/24 05:21:06;;;;;;;10.18;5.00;;;;;;;13.04;49.16;100218.78;5033984;28;20050;-69
2022/04/24 05:23:33;;;;;;;6.05;4.40;;;;;;;13.43;47.61;100219.50;5034553;28;20049;-69
2022/04/24 05:26:00;;;;;;;6.85;4.50;;;;;;;13.59;47.31;100223.06;5034055;28;20454;-68
2022/04/24 05:28:27;;;;;;;5.00;4.50;;;;;;;13.90;46.25;100216.09;5034147;28;20053;-69
2022/04/24 05:30:54;;;;;;;4.95;4.13;;;;;;;14.19;45.52;100213.69;5034596;28;20042;-69
2022/04/24 05:33:21;;;;;;;5.38;4.38;;;;;;;14.41;44.70;100218.63;5033670;28;20058;-69
2022/04/24 05:35:50;;;;;;;5.05;4.00;;;;;;;14.53;44.11;100211.78;5034039;28;20042;-69
2022/04/24 05:38:17;;;;;;;6.07;4.30;;;;;;;14.65;43.44;100214.66;5034085;28;20049;-68
2022/04/24 05:40:44;;;;;;;4.70;4.10;;;;;;;14.60;43.86;100217.59;5033921;28;20530;-69
2022/04/24 05:43:11;;;;;;;4.68;3.80;;;;;;;13.91;44.38;100217.81;5034293;28;20127;-69
2022/04/24 05:45:38;;;;;;;6.90;3.95;;;;;;;12.62;47.40;100225.25;5034080;28;20133;-68
2022/04/24 05:48:06;;;;;;;7.10;3.92;;;;;;;11.81;49.50;100226.34;5033996;28;20069;-68
2022/04/24 05:50:33;;;;;;;5.10;4.30;;;;;;;11.26;51.06;100224.34;5032987;28;20519;-69
2022/04/24 05:53:05;;;;;;;7.10;4.70;;;;;;;10.84;52.02;100226.09;5034474;28;20038;-68
2022/04/24 05:55:32;;;;;;;6.95;4.30;;;;;;;10.57;53.31;100232.44;5033388;28;20125;-67
2022/04/24 05:57:59;;;;;;;6.47;4.20;;;;;;;10.40;53.93;100240.16;5033919;28;20045;-67
2022/04/24 06:00:27;;;;;;;5.30;4.10;;;;;;;10.23;54.45;100236.34;5033655;28;20100;-68
2022/04/24 06:02:55;;;;;;;7.57;4.50;;;;;;;10.16;54.71;100231.41;5033230;28;20040;-69
2022/04/24 06:05:23;;;;;;;6.90;4.45;;;;;;;10.12;54.82;100237.69;5033860;28;20057;-69
2022/04/24 06:07:51;;;;;;;8.45;5.07;;;;;;;10.05;54.97;100232.66;5033937;28;20512;-69
2022/04/24 06:10:19;;;;;;;5.68;3.90;;;;;;;10.01;55.02;100243.38;5033653;28;20030;-69
2022/04/24 06:12:54;;;;;;;7.50;4.57;;;;;;;10.00;55.13;100252.19;5033637;28;20122;-67
2022/04/24 06:15:27;;;;;;;7.53;4.70;;;;;;;10.01;55.27;100246.84;5033851;28;20085;-68
2022/04/24 06:17:58;;;;;;;6.03;4.50;;;;;;;10.08;55.21;100250.13;5033067;28;20860;-68
2022/04/24 06:20:28;;;;;;;6.50;4.20;;;;;;;10.16;54.75;100241.94;5033824;28;20048;-69
2022/04/24 06:22:59;;;;;;;7.28;4.20;;;;;;;10.21;54.73;100242.59;5033661;28;20736;-68
2022/04/24 06:25:30;;;;;;;6.50;4.40;;;;;;;10.22;54.58;100239.94;5033662;28;20042;-68
2022/04/24 06:28:00;;;;;;;5.60;4.53;;;;;;;10.32;54.45;100240.41;5032977;28;20050;-70
2022/04/24 06:30:30;;;;;;;6.53;4.20;;;;;;;10.40;54.08;100234.88;5033565;28;20049;-69
2022/04/24 06:33:00;;;;;;;6.88;4.72;;;;;;;10.47;54.01;100239.00;5033410;28;20064;-69
2022/04/24 06:35:28;;;;;;;7.20;4.38;;;;;;;10.58;53.89;100243.84;5033365;28;20053;-69
2022/04/24 06:37:56;;;;;;;7.47;4.45;;;;;;;10.64;53.52;100240.09;5033616;28;20034;-68
2022/04/24 06:40:25;;;;;;;6.28;4.32;;;;;;;10.68;53.41;100237.25;5032576;28;20056;-68
2022/04/24 06:42:56;;;;;;;7.57;4.75;;;;;;;10.79;53.35;100238.59;5033499;28;20046;-68
2022/04/24 06:45:29;;;;;;;6.13;3.92;;;;;;;10.88;52.77;100240.91;5038562;28;20811;-69
2022/04/24 06:48:12;;;;;;;6.03;4.32;;;;;;;10.95;52.73;100244.97;5040438;28;20042;-68
2022/04/24 06:50:42;;;;;;;8.55;4.68;;;;;;;11.06;52.64;100244.53;5041135;28;20145;-69
2022/04/24 06:53:18;;;;;;;5.95;4.78;;;;;;;11.18;52.06;100249.28;5039796;28;20041;-69
2022/04/24 06:55:47;;;;;;;4.95;3.35;;;;;;;11.27;51.63;100257.72;5038450;28;20038;-68
2022/04/24 06:58:17;;;;;;;6.65;4.75;;;;;;;11.28;51.13;100254.19;5033312;28;20428;-69
2022/04/24 07:00:47;;;;;;;6.80;4.60;;;;;;;11.34;51.77;100254.78;5032462;28;20404;-69
2022/04/24 07:03:35;;;;;;;8.43;4.65;;;;;;;11.46;51.21;100247.25;5032732;28;20508;-68
2022/04/24 07:06:03;;;;;;;4.95;4.00;;;;;;;11.51;50.77;100250.53;5032568;28;20072;-69
2022/04/24 07:08:34;;;;;;;5.97;4.70;;;;;;;11.62;50.81;100250.94;5033058;28;20057;-67
2022/04/24 07:11:02;;;;;;;7.82;4.20;;;;;;;11.77;50.65;100256.47;5033196;28;20041;-68
2022/04/24 07:13:29;;;;;;;5.22;4.38;;;;;;;11.92;50.05;100263.69;5033167;28;20049;-68
2022/04/24 07:15:56;;;;;;;7.78;4.97;;;;;;;12.05;50.13;100261.41;5032366;28;20041;-69
2022/04/24 07:18:24;;;;;;;6.97;5.13;;;;;;;12.19;49.47;100257.25;5032728;28;20150;-69
2022/04/24 07:20:53;;;;;;;7.05;3.90;;;;;;;12.23;48.74;100254.38;5032590;28;20042;-69
2022/04/24 07:23:20;;;;;;;6.30;4.85;;;;;;;12.21;48.73;100258.03;5032816;28;20050;-68
2022/04/24 07:25:48;;;;;;;7.85;4.60;;;;;;;12.23;48.91;100264.97;5032590;28;20049;-69
2022/04/24 07:28:18;;;;;;;7.10;4.63;;;;;;;12.30;48.97;100267.34;5047388;28;20058;-68
2022/04/24 07:30:46;;;;;;;7.53;4.80;;;;;;;12.35;48.88;100271.47;5032927;28;20089;-68
2022/04/24 07:33:13;;;;;;;5.85;4.97;;;;;;;12.49;48.58;100269.94;5031963;28;20058;-69
2022/04/24 07:35:42;;;;;;;7.07;4.47;;;;;;;12.58;48.04;100272.16;5032392;28;20048;-68
2022/04/24 07:38:09;;;;;;;6.80;5.10;;;;;;;12.63;47.90;100277.22;5032421;28;20069;-68
2022/04/24 07:40:39;;;;;;;6.78;4.40;;;;;;;12.72;47.32;100268.84;5032440;28;20408;-69
2022/04/24 07:43:09;;;;;;;7.05;5.03;;;;;;;12.86;47.54;100273.50;5032609;28;20157;-69
2022/04/24 07:45:43;;;;;;;5.57;4.75;;;;;;;13.07;47.37;100270.72;5032592;28;20042;-68
2022/04/24 07:48:12;;;;;;;7.20;5.13;;;;;;;13.13;47.37;100276.53;5032174;28;20492;-68
2022/04/24 07:50:46;;;;;;;6.75;4.72;;;;;;;13.18;46.08;100269.25;5032604;28;20121;-69
2022/04/24 07:53:14;;;;;;;7.28;5.10;;;;;;;13.16;46.21;100273.75;5032074;28;20053;-69
2022/04/24 07:55:44;;;;;;;6.45;4.72;;;;;;;13.27;46.45;100275.00;5032340;28;20037;-69
2022/04/24 07:58:12;;;;;;;9.50;5.50;;;;;;;13.34;46.14;100271.09;5031819;28;20037;-69
2022/04/24 08:00:40;;;;;;;5.85;5.00;;;;;;;13.44;46.19;100266.22;5030837;28;20483;-68
2022/04/24 08:03:10;;;;;;;6.65;5.20;;;;;;;13.60;46.06;100274.25;5031808;28;20124;-68
2022/04/24 08:05:44;;;;;;;6.90;5.03;;;;;;;13.77;45.71;100270.72;5032572;28;20128;-69
2022/04/24 08:08:23;;;;;;;6.15;4.65;;;;;;;13.91;44.78;100281.41;5032094;28;20124;-68
2022/04/24 08:10:54;;;;;;;6.88;4.82;;;;;;;13.91;44.95;100277.94;5031642;28;20048;-69
2022/04/24 08:13:23;;;;;;;7.82;5.15;;;;;;;13.97;45.43;100274.94;5034447;28;20044;-69
2022/04/24 08:15:51;;;;;;;6.97;5.38;;;;;;;14.09;44.56;100279.59;5035773;28;20049;-69
2022/04/24 08:18:19;;;;;;;8.65;5.38;;;;;;;14.19;44.50;100277.31;5035932;28;20053;-69
2022/04/24 08:20:47;;;;;;;6.57;4.85;;;;;;;14.24;44.10;100277.06;5034945;28;20104;-69
2022/04/24 08:23:15;;;;;;;9.57;5.50;;;;;;;14.28;43.77;100278.56;5035728;28;20042;-68
2022/04/24 08:25:43;;;;;;;6.47;5.30;;;;;;;14.23;44.47;100270.88;5035787;28;20038;-68
2022/04/24 08:28:12;;;;;;;7.40;5.47;;;;;;;14.39;44.37;100283.31;5035590;28;20069;-69
2022/04/24 08:30:43;;;;;;;5.75;5.05;;;;;;;14.56;43.83;100283.22;5035360;28;20053;-69
2022/04/24 08:33:11;;;;;;;6.40;5.55;;;;;;;14.59;43.39;100283.06;5035051;28;20049;-68
2022/04/24 08:35:39;;;;;;;7.30;5.28;;;;;;;14.64;43.99;100277.50;5034660;28;20045;-68
2022/04/24 08:38:07;;;;;;;6.85;5.80;;;;;;;14.81;44.09;100279.19;5035061;28;20046;-69
2022/04/24 08:40:35;;;;;;;6.72;5.85;;;;;;;14.90;42.68;100280.47;5035070;28;20037;-69
2022/04/24 08:43:03;;;;;;;6.28;5.00;;;;;;;14.88;42.70;100283.22;5035281;28;20049;-69
2022/04/24 08:45:32;;;;;;;6.97;5.30;;;;;;;15.00;42.91;100280.81;5035165;28;20052;-68
2022/04/24 08:48:02;;;;;;;10.55;5.25;;;;;;;15.10;42.81;100281.13;5034868;28;20065;-69
2022/04/24 08:50:32;;;;;;;8.60;5.60;;;;;;;15.19;42.79;100288.56;5035504;28;20038;-69
2022/04/24 08:53:00;;;;;;;9.40;5.68;;;;;;;15.27;42.30;100280.97;5034587;28;20038;-68
2022/04/24 08:55:31;;;;;;;8.43;5.45;;;;;;;15.32;42.39;100286.88;5035189;28;20042;-68
2022/04/24 08:57:59;;;;;;;8.50;5.18;;;;;;;15.32;42.00;100286.88;5034774;28;20085;-67
2022/04/24 09:00:29;;;;;;;7.63;5.55;;;;;;;15.33;41.85;100288.59;5034881;28;20516;-69
2022/04/24 09:02:57;;;;;;;7.32;5.65;;;;;;;15.32;41.72;100280.72;5034989;28;20042;-68
2022/04/24 09:05:31;;;;;;;9.18;6.80;;;;;;;15.35;41.74;100286.72;5034517;28;20050;-68
2022/04/24 09:08:13;;;;;;;8.07;5.53;;;;;;;15.52;41.81;100285.69;5035087;28;20049;-68
2022/04/24 09:11:00;;;;;;;9.95;6.10;;;;;;;15.62;41.22;100290.44;5034700;28;20053;-68
2022/04/24 09:16:35;;;;;;;8.43;6.45;;;;;;;15.76;40.64;100286.97;5034704;28;20076;-69
2022/04/24 09:19:14;;;;;;;8.35;7.25;;;;;;;15.84;41.20;100280.25;5034016;28;20077;-70
2022/04/24 09:21:41;;;;;;;9.93;6.47;;;;;;;16.06;40.74;100286.91;5034411;28;20440;-69
2022/04/24 09:24:08;;;;;;;13.23;7.47;;;;;;;16.13;39.88;100284.72;5033524;28;20100;-69
2022/04/24 09:26:35;;;;;;;8.15;6.63;;;;;;;16.15;40.03;100282.84;5034647;28;20069;-69
2022/04/24 09:29:12;;;;;;;9.48;7.25;;;;;;;16.17;40.40;100288.91;5034636;28;20046;-68
2022/04/24 09:31:48;;;;;;;8.20;6.47;;;;;;;16.33;40.53;100282.63;5034013;28;20209;-69
2022/04/24 09:34:20;;;;;;;8.75;6.63;;;;;;;16.54;39.98;100281.25;5034103;28;20089;-69
2022/04/24 09:37:03;;;;;;;7.28;6.20;;;;;;;16.72;39.57;100278.34;5034678;28;20065;-69
2022/04/24 09:39:32;;;;;;;10.23;6.45;;;;;;;16.75;39.45;100271.00;5034557;28;20042;-69
2022/04/24 09:42:12;;;;;;;8.65;6.00;;;;;;;16.84;38.61;100279.38;5033929;28;20137;-69
2022/04/24 09:44:59;;;;;;;6.85;5.85;;;;;;;16.70;39.01;100275.78;5034545;28;20041;-68
2022/04/24 09:47:46;;;;;;;7.07;6.03;;;;;;;16.71;39.88;100282.84;5034514;28;20040;-69
2022/04/24 09:50:14;;;;;;;6.82;5.47;;;;;;;16.91;39.33;100278.84;5034371;28;20537;-69
2022/04/24 09:52:48;;;;;;;6.25;4.85;;;;;;;16.99;38.85;100273.06;5033599;28;20445;-69
2022/04/24 09:55:16;;;;;;;7.72;6.13;;;;;;;17.10;38.68;100276.81;5034195;28;20049;-69
2022/04/24 09:57:45;;;;;;;7.15;5.45;;;;;;;17.21;37.99;100274.28;5034363;28;20037;-68
2022/04/24 10:00:13;;;;;;;6.93;5.45;;;;;;;17.20;38.47;100280.56;5034160;28;20046;-69
2022/04/24 10:02:41;;;;;;;6.75;5.70;;;;;;;17.16;37.33;100277.25;5033956;28;20109;-68
2022/04/24 10:05:09;;;;;;;8.52;6.10;;;;;;;17.02;37.69;100277.31;5033724;28;20156;-69
2022/04/24 10:07:38;;;;;;;8.13;5.78;;;;;;;17.01;37.93;100270.28;5033899;28;20124;-69
2022/04/24 10:10:07;;;;;;;7.63;6.30;;;;;;;17.19;38.10;100279.72;5033918;28;20050;-70
2022/04/24 10:12:34;;;;;;;6.47;4.88;;;;;;;17.33;36.65;100289.44;5034128;28;20042;-69
2022/04/24 10:15:16;;;;;;;12.48;6.30;;;;;;;17.25;36.67;100283.75;5033877;28;20049;-69
2022/04/24 10:18:18;;;;;;;8.50;6.05;;;;;;;17.34;37.21;100279.63;5033719;28;20046;-69
2022/04/24 10:21:14;;;;;;;6.28;5.57;;;;;;;17.52;36.56;100281.03;5034051;28;20042;-68
2022/04/24 10:23:41;;;;;;;9.02;5.40;;;;;;;17.81;36.94;100272.00;5034056;28;20098;-69
2022/04/24 10:26:20;;;;;;;7.63;5.43;;;;;;;18.04;36.61;100270.41;5033359;28;20042;-69
2022/04/24 10:28:49;;;;;;;7.70;6.07;;;;;;;18.04;36.33;100274.91;5033492;28;20060;-68
2022/04/24 10:31:16;;;;;;;6.63;5.15;;;;;;;18.10;36.17;100274.44;5033560;28;20514;-69
2022/04/24 10:33:52;;;;;;;6.88;5.75;;;;;;;17.98;36.18;100279.69;5033176;28;20053;-68
2022/04/24 10:36:20;;;;;;;7.15;4.88;;;;;;;17.93;36.33;100281.81;5033074;28;20038;-69
2022/04/24 10:38:59;;;;;;;10.82;6.03;;;;;;;18.02;35.61;100288.31;5032680;28;20511;-69
2022/04/24 10:41:59;;;;;;;6.65;5.18;;;;;;;18.05;35.72;100279.28;5032802;28;20120;-68
2022/04/24 10:44:27;;;;;;;5.97;5.35;;;;;;;18.18;35.31;100269.41;5033384;28;20064;-68
2022/04/24 10:46:57;;;;;;;10.45;5.43;;;;;;;18.29;35.29;100268.66;5031502;28;20054;-68
2022/04/24 10:49:36;;;;;;;9.95;5.10;;;;;;;18.33;35.08;100279.97;5032852;28;20068;-68
2022/04/24 10:52:05;;;;;;;7.45;5.45;;;;;;;18.36;34.56;100277.94;5033244;28;20042;-68
2022/04/24 10:54:36;;;;;;;9.70;5.22;;;;;;;18.40;34.78;100283.88;5033170;28;20049;-68
2022/04/24 10:57:20;;;;;;;7.35;5.18;;;;;;;18.45;34.93;100279.94;5033028;28;20367;-68
2022/04/24 10:59:55;;;;;;;6.63;5.47;;;;;;;18.51;34.33;100278.63;5032336;28;20045;-68
2022/04/24 11:02:27;;;;;;;7.00;5.03;;;;;;;18.50;34.65;100278.75;5032789;28;20496;-69
2022/04/24 11:05:02;;;;;;;6.07;4.70;;;;;;;18.62;34.22;100277.84;5032888;28;20127;-68
2022/04/24 11:07:31;;;;;;;6.45;4.90;;;;;;;18.63;33.96;100287.56;5033074;28;20057;-69
2022/04/24 11:10:10;;;;;;;5.78;4.60;;;;;;;18.59;33.45;100284.25;5032486;28;20125;-69
2022/04/24 11:12:40;;;;;;;7.05;5.47;;;;;;;18.49;33.95;100277.88;5032934;28;20042;-69
2022/04/24 11:15:11;;;;;;;10.25;5.10;;;;;;;18.53;34.33;100274.03;5032803;28;20500;-68
2022/04/24 11:17:39;;;;;;;6.68;5.07;;;;;;;18.39;34.66;100274.19;5032904;28;20049;-69
2022/04/24 11:20:13;;;;;;;6.03;4.90;;;;;;;18.39;34.92;100269.72;5032634;28;20077;-69
2022/04/24 11:22:50;;;;;;;;;;;;;;;18.43;34.37;100278.34;5032677;28;20046;-69
2022/04/24 11:25:20;;;;;;;7.57;5.05;;;;;;;18.41;34.03;100273.13;5033373;28;19931;-69
2022/04/24 11:27:53;;;;;;;7.28;4.82;;;;;;;18.54;33.48;100267.75;5033251;28;20042;-69
2022/04/24 11:30:25;;;;;;;9.60;5.53;;;;;;;18.79;34.45;100273.94;5033098;28;20049;-69
2022/04/24 11:33:05;;;;;;;6.95;5.15;;;;;;;19.16;32.86;100278.38;5032899;28;20456;-69
2022/04/24 11:35:36;;;;;;;5.22;4.72;;;;;;;19.00;32.07;100268.00;5033104;28;20050;-69
2022/04/24 11:38:09;;;;;;;5.90;5.30;;;;;;;18.96;32.07;100272.72;5032903;28;20038;-69
2022/04/24 11:40:46;;;;;;;6.32;5.00;;;;;;;18.59;33.52;100264.72;5032973;28;20045;-68
2022/04/24 11:43:18;;;;;;;9.07;4.68;;;;;;;18.76;33.14;100261.66;5032191;28;20674;-69